Time;durP1;ratioP1;P1;durP2;ratioP2;P2;SDS_P1;SDS_P2;PMS_P1;PMS_P2;Temp;Humidity;BMP_temperature;BMP_pressure;BME280_temperature;BME280_humidity;BME280_pressure;Samples;Min_cycle;Max_cycle;Signal;HPM_P1;HPM_P2
2021/12/21 00:02:07;;;;;;;15.25;10.90;;;2.40;51.20;;;;;;20830;6815;118392;-88
2021/12/21 00:04:33;;;;;;;13.40;10.37;;;2.20;51.30;;;;;;20826;6815;117539;-88
2021/12/21 00:06:58;;;;;;;12.18;9.63;;;1.80;51.90;;;;;;20810;6813;118491;-87
2021/12/21 00:09:24;;;;;;;15.95;12.15;;;1.60;52.70;;;;;;20610;6814;302736;-88
2021/12/21 00:11:50;;;;;;;12.85;10.65;;;1.60;53.10;;;;;;20829;6815;117991;-87
2021/12/21 00:19:40;;;;;;;14.87;11.37;;;1.60;52.80;;;;;;20602;6815;311173;-88
2021/12/21 00:21:54;;;;;;;15.27;9.73;;;1.70;52.90;;;;;;20789;6815;120134;-88
2021/12/21 00:24:20;;;;;;;14.60;11.13;;;1.70;52.90;;;;;;20595;6815;307221;-88
2021/12/21 00:26:39;;;;;;;11.17;8.83;;;1.70;52.90;;;;;;20814;6815;118595;-88
2021/12/21 00:29:05;;;;;;;18.83;9.45;;;1.60;52.70;;;;;;20813;6815;117581;-88
2021/12/21 00:31:30;;;;;;;10.02;8.90;;;1.40;53.00;;;;;;20826;6815;118533;-87
2021/12/21 00:33:56;;;;;;;11.35;10.15;;;1.20;53.40;;;;;;20606;6815;277508;-88
2021/12/21 00:36:21;;;;;;;12.75;9.30;;;1.40;53.80;;;;;;20826;6815;117616;-88
2021/12/21 00:38:48;;;;;;;12.07;8.73;;;1.20;53.70;;;;;;20822;6815;120805;-91
2021/12/21 00:41:13;;;;;;;10.87;8.20;;;1.20;53.70;;;;;;20808;6815;117569;-88
2021/12/21 00:43:40;;;;;;;10.73;9.60;;;1.30;54.50;;;;;;20637;6815;280831;-88
2021/12/21 00:46:05;;;;;;;12.83;10.17;;;1.30;54.50;;;;;;20612;6815;317314;-88
2021/12/21 00:48:33;;;;;;;15.02;9.38;;;1.70;53.30;;;;;;20828;6815;117148;-88
2021/12/21 00:50:57;;;;;;;12.00;9.67;;;1.70;53.30;;;;;;20590;6815;307795;-88
2021/12/21 00:53:23;;;;;;;9.13;8.23;;;1.80;53.10;;;;;;20821;6815;117156;-88
2021/12/21 00:55:48;;;;;;;12.33;9.57;;;1.80;52.90;;;;;;20604;6815;312743;-88
2021/12/21 00:58:14;;;;;;;13.52;9.75;;;1.90;52.70;;;;;;20607;6815;307376;-88
2021/12/21 01:00:39;;;;;;;11.15;9.90;;;2.10;51.60;;;;;;20613;6815;306575;-87
2021/12/21 01:03:09;;;;;;;11.23;9.55;;;2.30;51.20;;;;;;20596;6815;302428;-88
2021/12/21 01:05:58;;;;;;;10.00;9.10;;;2.50;51.10;;;;;;20550;6815;308486;-87
2021/12/21 01:08:02;;;;;;;12.85;10.30;;;2.70;50.30;;;;;;20493;6815;339895;-86
2021/12/21 01:13:14;;;;;;;17.20;11.67;;;2.60;50.10;;;;;;20834;6815;117450;-87
2021/12/21 01:18:07;;;;;;;11.83;8.60;;;1.80;51.30;;;;;;20849;6813;117671;-88
2021/12/21 01:20:38;;;;;;;12.05;8.77;;;1.50;51.90;;;;;;20808;6814;117987;-88
2021/12/21 01:25:45;;;;;;;9.83;8.27;;;1.40;52.00;;;;;;19959;6821;121847;-88
2021/12/21 01:30:42;;;;;;;11.00;8.57;;;1.20;52.20;;;;;;20857;6814;116094;-87
2021/12/21 01:33:07;;;;;;;9.80;8.55;;;1.00;52.40;;;;;;20824;6814;120228;-88
2021/12/21 01:35:32;;;;;;;13.50;11.43;;;0.80;52.50;;;;;;20592;6814;307448;-89
2021/12/21 01:38:05;;;;;;;10.83;8.93;;;1.00;52.40;;;;;;20808;6814;119319;-88
2021/12/21 01:40:46;;;;;;;9.67;8.63;;;1.00;52.10;;;;;;20811;6814;117006;-87
2021/12/21 01:43:13;;;;;;;12.95;10.68;;;0.90;52.40;;;;;;20569;6814;281260;-87
2021/12/21 01:51:05;;;;;;;10.80;8.30;;;1.40;51.50;;;;;;20843;6814;123896;-87
2021/12/21 01:53:31;;;;;;;14.57;11.03;;;1.20;52.00;;;;;;20633;6814;306282;-86
2021/12/21 01:55:56;;;;;;;11.60;8.77;;;1.30;52.00;;;;;;20845;6814;118002;-87
2021/12/21 01:58:22;;;;;;;8.97;7.90;;;1.10;52.10;;;;;;20844;6814;117960;-86
2021/12/21 02:00:48;;;;;;;8.87;7.23;;;1.00;52.00;;;;;;20857;6814;116848;-86
2021/12/21 02:03:13;;;;;;;8.67;7.77;;;0.90;52.50;;;;;;20834;6814;118993;-87
2021/12/21 02:05:39;;;;;;;10.52;9.48;;;0.70;52.70;;;;;;20618;6814;320601;-87
2021/12/21 02:08:05;;;;;;;10.35;9.43;;;0.90;52.00;;;;;;20632;6814;288056;-86
2021/12/21 02:10:30;;;;;;;10.03;9.03;;;1.20;50.80;;;;;;20632;6814;307864;-86
2021/12/21 02:12:56;;;;;;;10.07;9.00;;;1.50;49.80;;;;;;20835;6814;118010;-88
2021/12/21 02:15:24;;;;;;;10.23;9.20;;;1.50;49.90;;;;;;20644;6814;306469;-86
2021/12/21 02:23:05;;;;;;;11.17;10.17;;;1.10;50.50;;;;;;20623;6814;306531;-88
2021/12/21 02:28:00;;;;;;;11.23;10.30;;;1.30;47.90;;;;;;20647;6814;305758;-86
2021/12/21 02:30:21;;;;;;;11.88;10.85;;;1.50;47.40;;;;;;20599;6812;312529;-86
2021/12/21 02:32:47;;;;;;;11.07;9.00;;;1.60;46.70;;;;;;20825;6814;120231;-88
2021/12/21 02:35:12;;;;;;;10.05;9.07;;;1.40;47.00;;;;;;20807;6814;123186;-87
2021/12/21 02:37:38;;;;;;;11.00;10.00;;;1.00;47.70;;;;;;20610;6814;296265;-88
2021/12/21 02:40:04;;;;;;;9.52;8.63;;;0.90;47.80;;;;;;20834;6814;117284;-89
2021/12/21 02:42:29;;;;;;;11.63;10.43;;;0.80;47.80;;;;;;20605;6814;277558;-87
2021/12/21 02:44:56;;;;;;;11.38;10.30;;;1.10;47.60;;;;;;20597;6814;278415;-88
2021/12/21 02:47:21;;;;;;;11.10;10.05;;;1.10;47.50;;;;;;20639;6814;305458;-89
2021/12/21 02:49:47;;;;;;;9.95;9.02;;;1.10;47.80;;;;;;20880;6814;117651;-91
2021/12/21 02:52:13;;;;;;;11.93;8.97;;;1.10;47.80;;;;;;20823;6814;116906;-88
2021/12/21 02:54:39;;;;;;;10.88;8.95;;;0.80;48.30;;;;;;20834;6814;118194;-89
2021/12/21 02:57:04;;;;;;;10.77;7.97;;;0.50;48.90;;;;;;20817;6814;127908;-87
2021/12/21 02:59:31;;;;;;;8.27;7.50;;;0.10;49.80;;;;;;20828;6814;118385;-90
2021/12/21 03:01:56;;;;;;;10.50;9.60;;;0.10;49.90;;;;;;20623;6814;277654;-87
2021/12/21 03:04:22;;;;;;;12.52;9.80;;;0.20;49.60;;;;;;20619;6814;336426;-87
2021/12/21 03:07:19;;;;;;;11.75;8.30;;;0.60;48.60;;;;;;20848;6814;118473;-89
2021/12/21 03:11:50;;;;;;;9.37;8.00;;;0.30;48.60;;;;;;20827;6814;117329;-89
2021/12/21 03:14:13;;;;;;;9.90;8.55;;;0.10;49.40;;;;;;20821;6814;122358;-87
2021/12/21 03:16:39;;;;;;;8.93;7.87;;;-0.10;49.80;;;;;;20839;6814;117139;-89
2021/12/21 03:19:04;;;;;;;7.60;6.90;;;-0.20;50.20;;;;;;20854;6814;118664;-89
2021/12/21 03:21:30;;;;;;;8.70;7.78;;;-0.40;50.40;;;;;;20819;6814;123490;-87
2021/12/21 03:23:56;;;;;;;8.65;7.85;;;-0.60;51.00;;;;;;20825;6814;117246;-87
2021/12/21 03:26:22;;;;;;;8.37;7.57;;;-0.60;51.00;;;;;;20833;6814;117459;-86
2021/12/21 03:28:48;;;;;;;9.63;7.65;;;-0.70;51.40;;;;;;20825;6814;117504;-87
2021/12/21 03:31:14;;;;;;;12.53;10.13;;;-0.70;51.40;;;;;;20589;6814;306671;-88
2021/12/21 03:33:39;;;;;;;9.70;8.70;;;-0.50;51.30;;;;;;20826;6814;117909;-87
2021/12/21 03:36:05;;;;;;;11.18;10.18;;;-0.40;50.80;;;;;;20604;6814;311216;-88
2021/12/21 03:38:31;;;;;;;9.33;7.80;;;-0.30;50.20;;;;;;20821;6814;118015;-87
2021/12/21 03:41:02;;;;;;;11.07;10.02;;;-0.20;50.00;;;;;;20585;6813;277649;-88
2021/12/21 03:43:22;;;;;;;9.97;8.97;;;-0.10;49.20;;;;;;20807;6814;121121;-88
2021/12/21 03:45:57;;;;;;;9.20;8.30;;;-0.10;49.20;;;;;;20825;6814;117081;-87
2021/12/21 03:48:15;;;;;;;11.05;9.95;;;-0.20;49.80;;;;;;20590;6814;299339;-88
2021/12/21 03:50:40;;;;;;;11.00;10.00;;;-0.20;49.20;;;;;;20599;6814;336515;-87
2021/12/21 03:53:05;;;;;;;10.88;9.93;;;0.10;48.00;;;;;;20590;6814;307485;-87
2021/12/21 03:55:31;;;;;;;9.48;8.50;;;0.40;47.50;;;;;;20816;6814;117451;-87
2021/12/21 03:57:56;;;;;;;8.50;7.60;;;0.30;47.70;;;;;;20833;6814;116780;-87
2021/12/21 04:00:23;;;;;;;10.10;9.20;;;0.00;48.30;;;;;;20628;6814;306468;-87
2021/12/21 04:02:48;;;;;;;9.95;9.15;;;0.30;47.20;;;;;;20661;6814;307185;-87
2021/12/21 04:05:14;;;;;;;10.57;9.60;;;0.30;47.20;;;;;;20656;6814;309252;-89
2021/12/21 04:07:41;;;;;;;9.07;8.18;;;0.50;46.60;;;;;;20833;6814;121872;-88
2021/12/21 04:10:05;;;;;;;8.43;7.63;;;0.40;46.80;;;;;;20830;6814;117421;-89
2021/12/21 04:12:31;;;;;;;7.90;7.10;;;0.10;47.40;;;;;;20844;6814;116907;-88
2021/12/21 04:14:57;;;;;;;8.20;7.50;;;-0.10;48.10;;;;;;20803;6814;126733;-88
2021/12/21 04:17:24;;;;;;;6.87;6.30;;;-0.50;49.10;;;;;;20822;6814;117263;-87
2021/12/21 04:19:48;;;;;;;9.57;8.77;;;-0.50;49.00;;;;;;20599;6814;312366;-87
2021/12/21 04:22:14;;;;;;;12.10;10.40;;;-0.40;49.70;;;;;;20612;6814;278925;-87
2021/12/21 04:24:39;;;;;;;13.50;12.10;;;-0.10;47.80;;;;;;20605;6814;312456;-90
2021/12/21 04:27:06;;;;;;;10.13;8.65;;;0.00;46.70;;;;;;20807;6814;118163;-86
2021/12/21 04:29:31;;;;;;;8.47;7.67;;;0.00;46.90;;;;;;20822;6814;117306;-87
2021/12/21 04:31:57;;;;;;;10.45;9.55;;;-0.30;47.60;;;;;;20613;6814;307573;-85
2021/12/21 04:34:22;;;;;;;9.30;8.48;;;-0.30;48.30;;;;;;20859;6814;116369;-84
2021/12/21 04:36:48;;;;;;;10.13;7.62;;;-0.30;48.40;;;;;;20836;6814;118583;-86
2021/12/21 04:39:32;;;;;;;7.80;7.12;;;-0.50;48.80;;;;;;20805;6814;117646;-85
2021/12/21 04:41:43;;;;;;;8.07;7.33;;;-0.70;49.20;;;;;;20774;6814;117139;-85
2021/12/21 04:44:08;;;;;;;8.32;6.40;;;-0.80;49.70;;;;;;20822;6814;116145;-85
2021/12/21 04:46:33;;;;;;;9.40;8.60;;;-1.00;49.90;;;;;;20609;6814;311046;-85
2021/12/21 04:48:59;;;;;;;8.30;7.43;;;-0.80;49.90;;;;;;20803;6814;117117;-85
2021/12/21 04:51:24;;;;;;;7.82;7.10;;;-0.80;49.50;;;;;;20827;6814;120939;-84
2021/12/21 04:53:50;;;;;;;9.52;8.63;;;-0.90;49.70;;;;;;20606;6812;307347;-86
2021/12/21 04:56:15;;;;;;;9.70;8.88;;;-0.70;49.40;;;;;;20611;6814;312048;-85
2021/12/21 04:58:41;;;;;;;9.02;8.00;;;-0.40;48.50;;;;;;20832;6814;117568;-85
2021/12/21 05:01:07;;;;;;;9.47;7.53;;;-0.40;48.20;;;;;;20804;6814;117364;-86
2021/12/21 05:03:32;;;;;;;9.45;8.75;;;-0.60;48.60;;;;;;20666;6814;306047;-85
2021/12/21 07:43:09;;;;;;;7.73;6.97;;;-2.30;57.50;;;;;;21041;6490;89365;-82
2021/12/21 07:45:54;;;;;;;9.25;7.22;;;-2.30;57.50;;;;;;20843;6784;116534;-87
2021/12/21 07:48:30;;;;;;;12.83;9.23;;;-2.20;57.20;;;;;;20927;6742;116124;-86
2021/12/21 07:51:07;;;;;;;18.57;10.27;;;-2.10;57.20;;;;;;20916;6728;117307;-83
2021/12/21 07:53:42;;;;;;;16.17;10.70;;;-2.10;57.30;;;;;;20906;6730;117321;-83
2021/12/21 07:56:20;;;;;;;14.83;11.83;;;-2.00;57.20;;;;;;20694;6731;279846;-83
2021/12/21 07:58:52;;;;;;;10.27;9.30;;;-1.60;56.20;;;;;;20860;6742;118221;-83
2021/12/21 08:01:28;;;;;;;13.27;9.00;;;-1.30;55.70;;;;;;20863;6749;117874;-84
2021/12/21 08:04:04;;;;;;;10.17;9.17;;;-1.20;56.10;;;;;;20640;6744;278250;-86
2021/12/21 08:06:40;;;;;;;15.20;13.57;;;-0.90;53.80;;;;;;20737;6719;307102;-87
2021/12/21 08:09:15;;;;;;;10.93;9.90;;;-0.40;50.90;;;;;;20661;6738;317835;-84
2021/12/21 08:14:46;;;;;;;19.93;13.93;;;0.20;49.60;;;;;;20844;6719;117049;-86
2021/12/21 08:17:22;;;;;;;64.43;47.47;;;0.20;50.40;;;;;;20750;6719;304506;-86
2021/12/21 08:19:57;;;;;;;9.83;9.03;;;0.40;49.70;;;;;;20768;6720;305015;-85
2021/12/21 08:22:33;;;;;;;9.73;8.90;;;0.90;48.00;;;;;;20691;6734;297767;-86
2021/12/21 08:25:09;;;;;;;9.30;8.50;;;1.20;46.10;;;;;;20805;6720;123024;-86
2021/12/21 08:27:44;;;;;;;8.40;7.20;;;1.20;46.50;;;;;;20899;6736;117173;-86
2021/12/21 08:30:20;;;;;;;8.10;7.30;;;1.00;47.30;;;;;;20917;6736;117317;-87
2021/12/21 08:33:10;;;;;;;;;;;;;;;;;;;;;
2021/12/21 08:35:35;;;;;;;8.23;7.40;;;0.90;47.50;;;;;;20761;6736;117371;-87
2021/12/21 08:38:14;;;;;;;8.67;7.57;;;1.00;47.50;;;;;;20951;6721;117162;-87
2021/12/21 08:40:49;;;;;;;8.00;7.20;;;0.80;48.00;;;;;;20946;6721;117219;-85
2021/12/21 08:43:24;;;;;;;7.97;7.30;;;0.70;48.70;;;;;;20884;6736;117142;-87
2021/12/21 10:07:38;;;;;;;11.40;10.20;;;4.50;44.20;;;;;;21466;6486;89340;-87
2021/12/21 10:10:14;;;;;;;11.75;10.52;;;4.30;44.70;;;;;;20882;6793;119284;-86
2021/12/21 10:12:40;;;;;;;12.88;11.75;;;4.00;46.10;;;;;;20706;6781;276711;-87
2021/12/21 10:15:15;;;;;;;13.43;12.23;;;4.00;45.80;;;;;;20588;6781;304676;-87
2021/12/21 10:17:54;;;;;;;11.63;10.47;;;4.20;45.70;;;;;;20753;6820;116775;-88
2021/12/21 10:20:30;;;;;;;10.70;9.60;;;4.10;45.90;;;;;;20776;6814;117853;-88
2021/12/21 10:22:55;;;;;;;12.05;10.90;;;3.80;46.40;;;;;;20464;6853;309639;-88
2021/12/21 10:25:21;;;;;;;12.23;11.15;;;3.90;46.70;;;;;;20486;6841;306606;-91
2021/12/21 10:27:47;;;;;;;12.80;10.90;;;4.20;46.40;;;;;;20733;6841;116940;-87
2021/12/21 10:30:12;;;;;;;10.53;9.50;;;4.20;46.30;;;;;;20717;6848;117479;-88
2021/12/21 10:32:38;;;;;;;14.20;12.90;;;4.10;46.80;;;;;;20717;6848;117396;-88
2021/12/21 10:35:03;;;;;;;11.90;10.70;;;3.90;47.00;;;;;;20472;6838;313219;-91
2021/12/21 10:37:30;;;;;;;12.67;10.57;;;4.10;46.80;;;;;;20728;6844;119843;-88
2021/12/21 10:40:08;;;;;;;10.83;9.50;;;4.10;46.70;;;;;;20728;6844;117751;-90
2021/12/21 10:42:46;;;;;;;10.70;9.00;;;4.00;46.90;;;;;;20735;6844;118339;-88
2021/12/21 10:45:12;;;;;;;12.13;9.77;;;3.90;47.30;;;;;;20684;6844;118619;-87
2021/12/21 10:47:38;;;;;;;11.77;10.68;;;3.80;47.50;;;;;;20534;6844;295209;-90
2021/12/21 10:50:04;;;;;;;9.98;9.05;;;4.10;46.80;;;;;;20764;6844;117793;-88
2021/12/21 10:52:31;;;;;;;10.80;9.60;;;4.10;47.20;;;;;;20743;6844;117126;-86
2021/12/21 10:54:56;;;;;;;10.00;9.10;;;4.00;47.10;;;;;;20720;6844;127454;-88
2021/12/21 10:57:22;;;;;;;8.65;7.85;;;4.00;47.50;;;;;;20788;6844;116543;-89
2021/12/21 10:59:47;;;;;;;9.20;8.30;;;4.00;48.00;;;;;;20785;6829;118516;-89
2021/12/21 11:02:16;;;;;;;9.97;9.17;;;4.10;48.50;;;;;;20573;6829;278020;-88
2021/12/21 11:04:41;;;;;;;9.85;9.02;;;4.40;49.40;;;;;;20529;6829;307118;-87
2021/12/21 11:07:19;;;;;;;9.57;8.60;;;4.90;48.90;;;;;;20757;6829;117043;-90
2021/12/21 11:09:35;;;;;;;9.75;8.85;;;5.20;48.40;;;;;;20516;6829;337074;-88
2021/12/21 11:12:01;;;;;;;11.70;10.73;;;5.40;48.10;;;;;;20564;6829;279830;-86
2021/12/21 11:14:26;;;;;;;10.65;9.80;;;5.80;47.20;;;;;;20552;6829;339051;-86
2021/12/21 11:16:52;;;;;;;11.63;10.63;;;6.20;46.60;;;;;;20534;6828;311906;-89
2021/12/21 11:19:18;;;;;;;9.17;8.37;;;6.70;45.60;;;;;;20569;6828;277791;-87
2021/12/21 11:21:44;;;;;;;9.23;8.43;;;6.70;45.50;;;;;;20562;6829;311170;-85
2021/12/21 11:24:09;;;;;;;11.90;10.90;;;6.90;43.80;;;;;;20764;6829;122017;-87
2021/12/21 11:26:35;;;;;;;8.30;7.50;;;6.70;44.10;;;;;;20765;6829;117339;-85
2021/12/21 11:29:01;;;;;;;8.63;7.63;;;6.40;44.30;;;;;;20759;6829;117419;-85
2021/12/21 11:31:27;;;;;;;8.27;7.43;;;5.90;45.60;;;;;;20791;6829;117845;-86
2021/12/21 11:33:57;;;;;;;8.87;8.07;;;5.90;45.20;;;;;;20800;6829;117435;-84
2021/12/21 11:39:03;;;;;;;8.83;8.03;;;5.70;46.40;;;;;;20555;6829;278484;-85
2021/12/21 11:41:29;;;;;;;8.45;7.85;;;5.90;46.50;;;;;;20565;6829;307555;-85
2021/12/21 11:44:11;;;;;;;9.00;7.60;;;6.30;45.80;;;;;;20854;6829;116520;-88
2021/12/21 11:46:40;;;;;;;8.20;7.50;;;6.30;45.40;;;;;;20585;6829;278488;-85
2021/12/21 11:49:12;;;;;;;8.37;7.57;;;6.50;44.60;;;;;;20534;6829;302615;-84
2021/12/21 11:51:38;;;;;;;9.00;8.10;;;6.70;44.10;;;;;;20566;6829;336145;-86
2021/12/21 11:54:03;;;;;;;8.38;7.60;;;6.90;42.40;;;;;;20568;6829;307573;-86
2021/12/21 11:56:29;;;;;;;8.03;7.47;;;7.00;41.70;;;;;;20738;6829;117203;-86
2021/12/21 11:58:54;;;;;;;7.90;7.30;;;6.70;42.50;;;;;;20528;6829;313375;-87
2021/12/21 12:01:23;;;;;;;8.70;8.05;;;6.70;42.60;;;;;;20536;6829;303718;-86
2021/12/21 12:03:55;;;;;;;8.63;7.83;;;6.80;42.30;;;;;;20550;6829;337462;-87
2021/12/21 12:06:21;;;;;;;8.10;7.43;;;6.80;41.50;;;;;;20535;6829;279667;-86
2021/12/21 12:08:52;;;;;;;8.17;7.37;;;7.00;42.50;;;;;;20571;6829;311203;-90
2021/12/21 12:11:35;;;;;;;6.80;6.20;;;6.90;42.40;;;;;;20758;6829;118462;-87
2021/12/21 12:14:04;;;;;;;6.53;5.93;;;6.80;43.10;;;;;;20820;6829;116113;-86
2021/12/21 12:16:43;;;;;;;6.97;6.28;;;6.40;43.70;;;;;;20592;6829;306865;-89
2021/12/21 12:19:08;;;;;;;6.82;6.22;;;6.40;43.30;;;;;;20546;6829;337173;-86
2021/12/21 12:21:34;;;;;;;6.33;5.57;;;6.60;42.30;;;;;;20774;6829;116274;-88
2021/12/21 12:24:01;;;;;;;6.27;5.77;;;6.20;43.20;;;;;;20788;6829;117837;-89
2021/12/21 12:26:26;;;;;;;6.63;5.83;;;6.20;42.80;;;;;;20788;6829;117164;-87
2021/12/21 12:28:51;;;;;;;6.40;5.87;;;5.90;43.30;;;;;;20533;6828;278932;-86
2021/12/21 12:31:30;;;;;;;7.60;6.80;;;5.90;42.90;;;;;;20782;6829;117110;-86
2021/12/21 12:33:56;;;;;;;7.15;6.43;;;5.90;42.90;;;;;;20564;6829;307137;-84
2021/12/21 12:36:32;;;;;;;9.45;8.48;;;5.90;42.80;;;;;;20789;6829;116122;-84
2021/12/21 12:38:57;;;;;;;7.80;7.17;;;5.90;42.80;;;;;;20716;6829;123198;-85
2021/12/21 12:41:23;;;;;;;7.47;6.80;;;5.60;43.00;;;;;;20580;6829;281909;-86
2021/12/21 12:43:49;;;;;;;6.70;6.22;;;5.70;43.30;;;;;;20784;6829;117641;-85
2021/12/21 12:46:21;;;;;;;7.57;6.80;;;5.70;43.50;;;;;;20576;6829;292574;-85
2021/12/21 12:48:47;;;;;;;7.27;6.67;;;5.80;43.30;;;;;;20555;6829;331205;-86
2021/12/21 12:51:28;;;;;;;7.87;7.07;;;6.00;42.30;;;;;;20780;6829;117511;-84
2021/12/21 12:53:54;;;;;;;7.47;6.80;;;5.90;42.50;;;;;;20590;6829;307262;-84
2021/12/21 12:56:20;;;;;;;7.37;6.65;;;5.90;42.60;;;;;;20611;6829;307174;-87
2021/12/21 12:58:58;;;;;;;7.62;6.93;;;6.10;42.30;;;;;;20604;6829;307505;-82
2021/12/21 13:01:27;;;;;;;7.57;6.87;;;6.30;42.20;;;;;;20542;6829;279946;-85
2021/12/21 13:04:01;;;;;;;6.77;5.70;;;6.40;41.90;;;;;;20782;6829;116765;-85
2021/12/21 13:06:26;;;;;;;6.70;6.10;;;6.20;42.20;;;;;;20766;6829;116239;-85
2021/12/21 13:08:52;;;;;;;7.27;6.47;;;5.90;42.80;;;;;;20723;6829;119321;-85
2021/12/21 13:11:17;;;;;;;10.87;9.87;;;5.60;43.30;;;;;;20587;6829;307652;-85
2021/12/21 13:13:44;;;;;;;8.07;7.32;;;5.90;43.40;;;;;;20591;6829;325413;-84
2021/12/21 13:16:09;;;;;;;8.90;7.62;;;5.90;42.70;;;;;;20580;6829;336585;-85
2021/12/21 13:18:45;;;;;;;7.37;6.23;;;6.20;43.10;;;;;;20809;6829;116291;-83
2021/12/21 13:21:23;;;;;;;7.40;6.80;;;6.10;42.70;;;;;;20583;6829;281748;-84
2021/12/21 13:23:58;;;;;;;9.30;8.33;;;6.10;43.00;;;;;;20812;6829;116966;-83
2021/12/21 13:26:24;;;;;;;8.10;6.10;;;6.00;43.20;;;;;;20813;6829;116134;-83
2021/12/21 13:28:49;;;;;;;6.13;5.63;;;5.80;43.50;;;;;;20795;6829;122690;-84
2021/12/21 13:31:15;;;;;;;11.00;8.57;;;5.50;43.60;;;;;;20760;6829;119488;-85
2021/12/21 13:33:41;;;;;;;9.23;8.37;;;5.10;44.20;;;;;;20794;6829;118424;-84
2021/12/21 13:36:07;;;;;;;9.63;7.00;;;5.10;44.20;;;;;;20817;6829;117703;-84
2021/12/21 13:38:32;;;;;;;9.75;7.97;;;4.90;44.40;;;;;;20609;6829;278359;-84
2021/12/21 13:40:58;;;;;;;6.50;6.00;;;5.10;45.30;;;;;;20622;6828;307472;-84
2021/12/21 13:43:24;;;;;;;6.80;6.23;;;5.50;44.00;;;;;;20831;6829;67319;-84
2021/12/21 13:45:49;;;;;;;7.27;6.57;;;5.50;43.80;;;;;;20618;6829;339837;-84
2021/12/21 13:48:18;;;;;;;6.53;5.95;;;5.60;43.60;;;;;;20793;6829;71844;-84
2021/12/21 13:50:44;;;;;;;6.80;6.10;;;5.50;43.70;;;;;;20618;6829;336951;-84
2021/12/21 13:53:10;;;;;;;5.97;5.47;;;5.50;43.60;;;;;;20846;6829;69936;-87
2021/12/21 13:55:39;;;;;;;7.83;7.03;;;5.50;43.50;;;;;;20613;6829;311556;-84
2021/12/21 13:58:05;;;;;;;6.33;5.73;;;5.60;43.10;;;;;;20824;6829;70423;-85
2021/12/21 14:00:30;;;;;;;7.10;5.70;;;5.60;43.30;;;;;;20615;6829;280798;-84
2021/12/21 14:03:15;;;;;;;6.60;5.90;;;5.60;42.90;;;;;;20602;6829;278472;-85
2021/12/21 15:44:29;;;;;;;8.10;7.40;;;2.30;47.30;;;;;;21126;6634;304897;-87
2021/12/21 15:46:50;;;;;;;8.10;7.60;;;2.50;47.20;;;;;;20903;6720;279081;-87
2021/12/21 15:49:14;;;;;;;5.87;5.47;;;3.00;46.60;;;;;;21127;6721;71035;-87
2021/12/21 15:51:40;;;;;;;7.13;6.43;;;3.10;46.10;;;;;;21095;6732;68662;-86
2021/12/21 15:54:05;;;;;;;6.57;6.03;;;3.00;46.10;;;;;;20922;6717;323223;-86
2021/12/21 15:56:31;;;;;;;7.12;5.20;;;3.10;45.80;;;;;;21114;6732;66944;-86
2021/12/21 15:58:56;;;;;;;7.83;5.80;;;3.10;45.70;;;;;;21159;6717;66711;-87
2021/12/21 16:01:22;;;;;;;5.90;5.50;;;3.00;45.80;;;;;;21116;6732;69628;-86
2021/12/21 16:03:48;;;;;;;7.37;6.67;;;3.00;46.00;;;;;;20943;6717;304086;-86
2021/12/21 16:06:16;;;;;;;7.90;7.30;;;3.00;46.00;;;;;;20953;6732;275425;-87
2021/12/21 16:08:39;;;;;;;7.12;6.07;;;3.40;45.40;;;;;;21315;6477;66329;-87
2021/12/21 16:11:05;;;;;;;7.43;6.65;;;3.40;45.20;;;;;;21148;6646;303357;-87
2021/12/21 16:13:30;;;;;;;10.35;9.35;;;3.40;45.00;;;;;;21141;6646;288345;-87
2021/12/21 16:15:56;;;;;;;49.17;31.13;;;3.70;44.60;;;;;;21208;6646;67404;-87
2021/12/21 16:18:22;;;;;;;41.72;26.98;;;3.30;45.30;;;;;;21198;6702;67692;-85
2021/12/21 16:20:48;;;;;;;36.20;21.30;;;3.30;44.80;;;;;;21199;6702;67575;-87
2021/12/21 16:23:14;;;;;;;32.85;20.20;;;2.80;45.50;;;;;;21205;6702;67240;-85
2021/12/21 16:25:40;;;;;;;26.13;16.97;;;2.80;45.50;;;;;;21200;6702;68518;-86
2021/12/21 16:28:06;;;;;;;11.00;9.63;;;2.50;46.10;;;;;;21228;6702;69893;-88
2021/12/21 16:30:35;;;;;;;12.27;10.40;;;2.50;46.00;;;;;;21182;6702;67923;-86
2021/12/21 16:33:01;;;;;;;16.73;12.10;;;2.40;46.20;;;;;;21088;6717;69942;-88
2021/12/21 16:35:26;;;;;;;10.30;9.20;;;2.30;46.30;;;;;;21276;6477;67239;-92
2021/12/21 16:37:52;;;;;;;9.97;8.97;;;2.20;46.40;;;;;;21147;6631;273132;-92
2021/12/21 16:40:20;;;;;;;10.02;9.13;;;2.80;46.10;;;;;;21089;6646;303507;-89
2021/12/21 16:42:44;;;;;;;13.10;11.77;;;2.80;46.10;;;;;;21359;6646;67260;-89
2021/12/21 16:45:09;;;;;;;13.10;11.63;;;2.90;45.80;;;;;;21256;6646;66676;-92
2021/12/21 16:47:35;;;;;;;17.50;15.73;;;2.70;45.90;;;;;;21083;6702;273176;-91
2021/12/21 16:50:01;;;;;;;9.03;8.13;;;2.80;46.20;;;;;;21179;6702;72974;-94
2021/12/21 16:52:27;;;;;;;11.80;9.43;;;2.70;45.90;;;;;;21166;6702;67572;-91
2021/12/21 16:54:52;;;;;;;11.23;9.30;;;2.60;46.10;;;;;;21190;6700;67135;-93
2021/12/21 16:57:17;;;;;;;13.40;12.25;;;2.40;46.30;;;;;;20990;6702;277845;-91
2021/12/21 16:59:46;;;;;;;11.03;9.90;;;2.50;46.70;;;;;;21206;6702;73397;-92
2021/12/21 17:02:09;;;;;;;12.57;11.30;;;2.60;46.60;;;;;;20970;6702;304023;-93
2021/12/21 17:19:03;;;;;;;13.27;12.07;;;2.10;47.00;;;;;;21114;6605;300973;-89
2021/12/21 17:21:39;;;;;;;12.57;11.48;;;2.40;47.00;;;;;;21172;6631;323005;-89
2021/12/21 17:24:14;;;;;;;13.30;12.00;;;2.80;46.30;;;;;;20745;6661;335847;-89
2021/12/21 17:26:50;;;;;;;12.97;10.63;;;3.00;45.80;;;;;;21341;6646;66923;-86
2021/12/21 17:29:46;;;;;;;;;;;;;;;;;;;;;
2021/12/21 17:32:12;;;;;;;10.77;9.13;;;2.90;46.00;;;;;;20911;6604;117350;-86
2021/12/21 17:34:48;;;;;;;9.70;8.80;;;2.70;45.90;;;;;;20624;6802;117658;-89
2021/12/21 17:37:30;;;;;;;10.30;9.13;;;2.10;46.50;;;;;;20642;6810;122122;-92
2021/12/21 17:40:07;;;;;;;12.10;10.93;;;2.20;46.40;;;;;;20604;6681;338929;-91
2021/12/21 17:43:12;;;;;;;;;;;;;;;;;;;;;
2021/12/21 17:45:38;;;;;;;11.80;10.80;;;2.20;46.10;;;;;;19955;6919;68493;-91
2021/12/21 17:48:13;;;;;;;13.23;12.07;;;2.00;46.30;;;;;;20749;6810;68555;-92
2021/12/21 17:50:49;;;;;;;20.50;18.70;;;1.80;46.60;;;;;;20507;6799;296708;-91
2021/12/21 17:53:25;;;;;;;32.83;29.57;;;2.30;46.10;;;;;;20496;6804;311351;-89
2021/12/21 17:56:01;;;;;;;22.07;17.33;;;2.20;45.90;;;;;;20481;6812;72535;-90
2021/12/21 17:58:37;;;;;;;14.40;13.00;;;2.20;45.70;;;;;;20722;6810;67980;-89
2021/12/21 18:01:12;;;;;;;19.27;17.37;;;2.00;46.10;;;;;;20508;6795;309879;-88
2021/12/21 18:28:15;;;;;;;21.37;15.93;;;0.70;48.90;;;;;;21681;6547;237771;-88
2021/12/21 18:30:41;;;;;;;22.47;20.17;;;0.60;48.10;;;;;;21426;6402;301266;-90
2021/12/21 18:33:07;;;;;;;20.23;18.35;;;0.80;48.30;;;;;;21371;6577;297572;-88
2021/12/21 18:35:32;;;;;;;24.10;21.60;;;1.30;47.80;;;;;;21427;6577;67005;-89
2021/12/21 18:37:58;;;;;;;20.70;18.50;;;1.30;47.20;;;;;;21414;6636;66528;-90
2021/12/21 18:40:24;;;;;;;26.37;23.67;;;1.20;47.40;;;;;;21138;6651;306140;-90
2021/12/21 18:42:54;;;;;;;25.88;23.38;;;1.60;46.70;;;;;;21132;6649;300349;-89
2021/12/21 18:45:19;;;;;;;22.87;20.40;;;1.60;46.70;;;;;;21374;6636;66582;-86
2021/12/21 18:47:45;;;;;;;24.73;22.33;;;1.60;46.30;;;;;;21143;6651;303677;-90
2021/12/21 18:50:10;;;;;;;22.43;18.03;;;1.60;46.20;;;;;;21398;6640;67986;-89
2021/12/21 18:52:37;;;;;;;19.60;17.58;;;1.50;46.00;;;;;;21422;6634;66569;-89
2021/12/21 18:55:07;;;;;;;23.17;20.98;;;1.30;46.90;;;;;;21101;6634;300628;-89
2021/12/21 18:57:30;;;;;;;21.47;19.47;;;1.30;46.60;;;;;;20440;6853;309292;-89
2021/12/21 19:00:20;;;;;;;19.73;17.83;;;1.60;46.30;;;;;;20464;6856;334923;-89
2021/12/21 19:03:10;;;;;;;19.65;17.62;;;1.80;45.70;;;;;;20454;6857;313602;-89
2021/12/21 19:05:38;;;;;;;19.40;17.53;;;2.00;45.20;;;;;;20458;6858;278282;-88
2021/12/21 19:08:11;;;;;;;20.05;18.05;;;2.10;44.90;;;;;;20485;6858;313054;-88
2021/12/21 19:10:36;;;;;;;18.27;16.57;;;2.20;44.70;;;;;;20622;6864;117413;-88
2021/12/21 19:13:10;;;;;;;18.33;16.42;;;1.50;45.30;;;;;;20647;6858;121374;-88
2021/12/21 19:15:36;;;;;;;17.93;16.13;;;1.50;45.30;;;;;;20669;6858;117607;-89
2021/12/21 19:18:02;;;;;;;18.75;16.98;;;0.90;47.00;;;;;;20688;6858;117387;-89
2021/12/21 19:20:28;;;;;;;17.30;15.70;;;0.90;46.40;;;;;;20683;6858;117889;-86
2021/12/21 19:22:54;;;;;;;21.07;19.07;;;0.70;46.70;;;;;;20453;6858;312833;-91
2021/12/21 19:25:19;;;;;;;18.95;17.25;;;0.80;47.00;;;;;;20475;6858;313221;-91
2021/12/21 19:27:45;;;;;;;18.77;16.87;;;1.20;46.70;;;;;;20479;6858;308891;-90
2021/12/21 19:30:11;;;;;;;16.30;14.77;;;1.30;45.90;;;;;;20690;6858;117789;-91
2021/12/21 19:32:36;;;;;;;16.48;15.07;;;1.30;45.90;;;;;;20464;6858;310844;-90
2021/12/21 19:35:27;;;;;;;13.13;11.93;;;1.30;46.10;;;;;;20601;6858;117796;-89
2021/12/21 19:37:36;;;;;;;13.47;12.07;;;1.20;46.00;;;;;;20516;6856;118393;-92
2021/12/21 19:40:01;;;;;;;13.60;11.10;;;0.90;46.40;;;;;;20681;6857;116307;-91